Time;durP1;ratioP1;P1;durP2;ratioP2;P2;SDS_P1;SDS_P2;PMS_P1;PMS_P2;Temp;Humidity;BMP_temperature;BMP_pressure;BME280_temperature;BME280_humidity;BME280_pressure;Samples;Min_cycle;Max_cycle;Signal;HPM_P1;HPM_P2
2022/10/09 00:01:12;;;;;;;10.68;2.28;;;;;;;15.76;100.00;98848.94;6188585;23;20051;-95
2022/10/09 00:03:42;;;;;;;11.15;1.60;;;;;;;16.33;100.00;98826.19;6190238;23;20043;-93
2022/10/09 00:06:14;;;;;;;10.88;1.75;;;;;;;15.98;100.00;98822.03;6215620;23;20283;-95
2022/10/09 00:08:42;;;;;;;12.07;2.30;;;;;;;15.43;100.00;98824.44;6188638;23;20422;-95
2022/10/09 00:11:10;;;;;;;8.57;1.50;;;;;;;16.35;100.00;98816.50;6216013;23;20079;-95
2022/10/09 00:13:36;;;;;;;8.52;1.40;;;;;;;16.06;100.00;98816.53;6189317;23;20015;-95
2022/10/09 00:16:07;;;;;;;10.30;1.42;;;;;;;16.26;100.00;98826.47;6189319;23;20008;-94
2022/10/09 00:18:33;;;;;;;8.20;1.33;;;;;;;15.65;100.00;98819.44;6213842;23;20092;-94
2022/10/09 00:20:59;;;;;;;9.60;1.33;;;;;;;16.61;100.00;98806.88;6189066;23;20055;-95
2022/10/09 00:23:25;;;;;;;9.80;1.52;;;;;;;15.85;100.00;98804.00;6187475;23;20407;-95
2022/10/09 00:25:59;;;;;;;5.93;1.30;;;;;;;15.93;100.00;98808.16;6188438;23;20004;-95
2022/10/09 00:28:28;;;;;;;8.25;1.50;;;;;;;16.15;100.00;98805.72;6189034;23;20063;-96
2022/10/09 00:31:04;;;;;;;10.25;1.27;;;;;;;16.19;100.00;98802.09;6190851;23;20013;-96
2022/10/09 00:33:29;;;;;;;7.45;1.42;;;;;;;15.75;100.00;98804.28;6189922;23;20092;-96
2022/10/09 00:35:55;;;;;;;6.60;1.40;;;;;;;16.10;100.00;98799.75;6189727;23;20009;-96
2022/10/09 00:38:20;;;;;;;7.18;1.25;;;;;;;16.14;100.00;98786.44;6189691;23;20019;-96
2022/10/09 00:40:46;;;;;;;6.75;1.25;;;;;;;16.46;100.00;98789.81;6190064;23;20272;-96
2022/10/09 00:43:15;;;;;;;9.32;1.30;;;;;;;16.54;100.00;98789.56;6188706;23;20004;-95
2022/10/09 00:45:49;;;;;;;7.10;1.23;;;;;;;16.40;100.00;98779.50;6215881;23;20008;-95
2022/10/09 00:48:17;;;;;;;7.78;1.42;;;;;;;15.79;100.00;98775.22;6189824;23;20001;-96
2022/10/09 00:50:55;;;;;;;8.60;1.70;;;;;;;16.50;100.00;98780.91;6216099;23;20017;-96
2022/10/09 00:53:25;;;;;;;9.82;1.30;;;;;;;16.35;100.00;98776.16;6189042;23;20012;-96
2022/10/09 00:55:52;;;;;;;6.97;1.40;;;;;;;15.76;100.00;98783.19;6217278;23;20613;-95
2022/10/09 00:58:18;;;;;;;8.45;1.38;;;;;;;16.44;100.00;98775.00;6216684;23;20004;-95
2022/10/09 01:00:43;;;;;;;10.60;1.30;;;;;;;16.66;100.00;98767.22;6245191;23;20015;-96
2022/10/09 01:03:16;;;;;;;10.00;1.40;;;;;;;16.57;100.00;98764.91;6247517;23;20004;-96
2022/10/09 01:06:17;;;;;;;8.40;1.52;;;;;;;16.52;100.00;98772.94;6217302;23;20007;-96
2022/10/09 01:09:07;;;;;;;10.70;1.30;;;;;;;16.27;100.00;98770.25;6247905;23;20005;-96
2022/10/09 01:11:54;;;;;;;8.20;1.50;;;;;;;17.10;100.00;98756.09;6216755;23;20461;-96
2022/10/09 01:14:33;;;;;;;12.45;1.80;;;;;;;16.52;100.00;98755.41;6217398;23;20012;-96
2022/10/09 01:17:08;;;;;;;9.50;2.15;;;;;;;16.79;100.00;98767.69;6221171;23;20008;-95
2022/10/09 01:19:40;;;;;;;9.18;1.48;;;;;;;16.29;100.00;98773.72;6249150;23;20007;-96
2022/10/09 01:22:25;;;;;;;9.82;1.70;;;;;;;16.44;100.00;98770.59;6216158;23;20009;-96
2022/10/09 01:25:17;;;;;;;10.80;1.48;;;;;;;15.94;100.00;98758.13;6222549;23;20087;-96
2022/10/09 01:27:49;;;;;;;7.43;1.50;;;;;;;16.22;100.00;98754.63;6219135;23;20004;-96
2022/10/09 01:30:14;;;;;;;6.78;1.30;;;;;;;16.01;100.00;98759.66;6216107;23;20410;-96
2022/10/09 01:32:50;;;;;;;9.30;1.30;;;;;;;16.25;100.00;98748.41;6218851;23;20009;-96
2022/10/09 01:35:16;;;;;;;9.90;1.67;;;;;;;15.49;100.00;98748.94;6247733;23;20000;-96
2022/10/09 01:37:44;;;;;;;12.90;1.70;;;;;;;14.97;100.00;98766.16;6247248;23;20346;-95
2022/10/09 01:40:13;;;;;;;12.20;1.63;;;;;;;14.67;100.00;98766.06;6214578;23;20083;-95
2022/10/09 01:42:40;;;;;;;9.13;1.60;;;;;;;14.93;100.00;98772.38;6215795;23;20100;-96
2022/10/09 01:45:13;;;;;;;6.28;1.30;;;;;;;15.08;100.00;98766.72;6213888;23;20016;-96
2022/10/09 01:47:39;;;;;;;7.90;1.42;;;;;;;14.94;100.00;98760.97;6216085;23;20019;-95
2022/10/09 01:50:11;;;;;;;7.32;1.58;;;;;;;14.08;100.00;98783.16;6218544;23;20093;-95
2022/10/09 01:52:48;;;;;;;10.40;1.65;;;;;;;14.08;100.00;98771.81;6216608;23;20004;-95
2022/10/09 01:55:34;;;;;;;9.07;1.63;;;;;;;14.60;100.00;98765.31;6214680;23;20085;-95
2022/10/09 01:58:37;;;;;;;9.77;1.67;;;;;;;14.34;100.00;98758.94;6216504;23;20023;-96
2022/10/09 02:01:41;;;;;;;7.32;1.80;;;;;;;14.63;100.00;98748.66;6222346;22;20086;-96
2022/10/09 02:04:17;;;;;;;9.00;1.55;;;;;;;14.72;100.00;98742.31;6189938;23;20025;-96
2022/10/09 02:06:55;;;;;;;13.48;2.05;;;;;;;14.44;100.00;98727.22;6165273;23;20009;-96
2022/10/09 02:09:47;;;;;;;9.43;2.10;;;;;;;14.40;100.00;98723.81;6168252;23;20005;-96
2022/10/09 02:12:26;;;;;;;10.40;1.60;;;;;;;14.45;100.00;98719.31;6169498;23;20059;-96
2022/10/09 02:14:52;;;;;;;8.27;1.70;;;;;;;13.94;100.00;98719.69;6193289;23;20125;-95
2022/10/09 02:17:44;;;;;;;;;;;;;;;;;;;;;
2022/10/09 02:20:30;;;;;;;10.50;1.63;;;;;;;14.23;100.00;98732.09;6181284;23;20033;-96
2022/10/09 02:23:15;;;;;;;10.48;1.50;;;;;;;14.00;100.00;98717.78;6192880;23;20052;-96
2022/10/09 02:26:04;;;;;;;8.70;1.60;;;;;;;13.98;100.00;98723.97;6166246;23;20001;-96
2022/10/09 02:28:33;;;;;;;13.40;2.22;;;;;;;13.93;100.00;98724.09;6167640;23;20011;-96
2022/10/09 02:31:53;;;;;;;10.82;1.90;;;;;;;13.87;100.00;98732.06;6192264;23;20111;-96
2022/10/09 02:34:39;;;;;;;13.40;2.15;;;;;;;14.01;100.00;98713.41;6175233;23;20035;-96
2022/10/09 02:37:22;;;;;;;10.38;2.08;;;;;;;14.31;100.00;98706.56;6230805;23;20027;-96
2022/10/09 02:40:03;;;;;;;11.80;1.90;;;;;;;13.97;100.00;98694.28;6228114;23;20073;-96
2022/10/09 02:42:51;;;;;;;10.88;2.35;;;;;;;14.84;100.00;98681.59;6232254;23;20008;-96
2022/10/09 02:45:40;;;;;;;14.52;1.90;;;;;;;14.02;100.00;98715.13;6228965;23;20015;-96
2022/10/09 02:48:12;;;;;;;10.23;2.25;;;;;;;13.51;100.00;98708.41;6225544;23;20058;-96
2022/10/09 02:54:09;;;;;;;11.95;2.47;;;;;;;13.77;100.00;98713.06;6254133;23;20027;-96
2022/10/09 02:56:41;;;;;;;8.45;2.00;;;;;;;13.39;100.00;98700.81;6104761;23;20013;-96
2022/10/09 02:59:07;;;;;;;8.73;1.73;;;;;;;13.82;100.00;98705.13;6109298;23;20010;-96
2022/10/09 03:01:39;;;;;;;9.52;2.00;;;;;;;14.15;100.00;98690.34;6112801;23;20002;-96
2022/10/09 03:04:07;;;;;;;10.70;1.95;;;;;;;14.03;100.00;98710.75;6110441;23;20021;-96
2022/10/09 03:06:33;;;;;;;10.95;1.92;;;;;;;14.15;100.00;98702.56;6112902;23;20014;-96
2022/10/09 03:08:58;;;;;;;11.15;1.98;;;;;;;15.36;100.00;98681.84;6108160;23;20488;-95
2022/10/09 03:11:24;;;;;;;14.82;2.40;;;;;;;15.33;100.00;98688.06;6129922;23;20054;-95
2022/10/09 03:13:50;;;;;;;12.68;2.47;;;;;;;14.98;100.00;98675.97;6127928;23;20501;-96
2022/10/09 03:16:18;;;;;;;13.85;2.50;;;;;;;14.74;100.00;98681.00;6107177;23;20021;-95
2022/10/09 03:18:45;;;;;;;11.95;2.80;;;;;;;14.72;100.00;98681.94;6135682;23;20010;-96
2022/10/09 03:21:35;;;;;;;13.55;2.90;;;;;;;14.90;100.00;98670.91;6106900;23;20013;-96
2022/10/09 03:24:13;;;;;;;11.10;3.25;;;;;;;14.67;100.00;98682.06;6105022;23;20010;-95
2022/10/09 03:27:02;;;;;;;13.27;2.83;;;;;;;14.49;100.00;98672.88;6110089;23;20448;-95
2022/10/09 03:30:02;;;;;;;11.95;3.13;;;;;;;14.60;100.00;98676.06;6114246;23;20071;-96
2022/10/09 03:32:42;;;;;;;14.07;3.55;;;;;;;14.46;100.00;98662.44;6201952;23;20007;-95
2022/10/09 03:35:54;;;;;;;12.05;3.35;;;;;;;14.42;100.00;98660.81;6200508;23;20011;-96
2022/10/09 03:42:24;;;;;;;14.25;3.35;;;;;;;13.69;100.00;98685.31;5985853;24;20613;-96
2022/10/09 03:44:49;;;;;;;16.63;4.28;;;;;;;14.49;100.00;98686.00;5992025;24;20028;-95
2022/10/09 03:47:24;;;;;;;14.90;3.35;;;;;;;13.87;100.00;98684.88;5965072;24;20012;-96
2022/10/09 03:50:43;;;;;;;12.98;3.75;;;;;;;13.71;100.00;98694.00;5964603;24;20012;-95
2022/10/09 03:53:30;;;;;;;;;;;;;;;;;;;;;
2022/10/09 03:56:05;;;;;;;12.27;3.28;;;;;;;14.07;100.00;98665.19;5969520;23;20095;-96
2022/10/09 03:58:51;;;;;;;15.57;3.17;;;;;;;14.04;100.00;98673.13;5984158;24;20033;-96
2022/10/09 04:01:43;;;;;;;14.90;3.63;;;;;;;14.36;100.00;98677.56;5985389;24;20028;-96
2022/10/09 04:04:10;;;;;;;13.00;3.40;;;;;;;15.22;100.00;98669.13;6012840;23;20046;-96
2022/10/09 04:07:18;;;;;;;14.10;3.83;;;;;;;13.80;100.00;98676.31;5988962;23;20042;-96
2022/10/09 04:10:09;;;;;;;13.18;3.50;;;;;;;13.76;100.00;98673.78;5989984;23;20052;-96
2022/10/09 04:12:37;;;;;;;15.88;4.28;;;;;;;13.34;100.00;98679.09;5988579;23;20007;-96
2022/10/09 04:15:15;;;;;;;16.13;3.75;;;;;;;13.70;100.00;98672.19;6025240;23;20010;-96
2022/10/09 04:18:02;;;;;;;14.05;4.72;;;;;;;13.52;100.00;98656.88;6145710;22;20023;-96
2022/10/09 04:20:37;;;;;;;16.65;5.22;;;;;;;13.65;100.00;98677.53;6253865;22;20033;-96
2022/10/09 04:23:03;;;;;;;11.10;4.03;;;;;;;15.73;100.00;98624.66;6252520;22;20007;-95
2022/10/09 04:25:31;;;;;;;16.17;4.50;;;;;;;15.67;100.00;98612.56;6251887;22;20007;-96
2022/10/09 04:28:00;;;;;;;14.13;4.53;;;;;;;15.45;100.00;98601.88;6250778;22;20008;-95
2022/10/09 04:30:33;;;;;;;16.65;5.05;;;;;;;15.37;100.00;98599.50;6253528;22;20067;-96
2022/10/09 04:32:58;;;;;;;17.65;4.80;;;;;;;15.33;100.00;98609.22;6255077;22;20442;-95
2022/10/09 04:35:37;;;;;;;18.52;5.57;;;;;;;15.62;100.00;98601.34;6256099;22;20335;-96
2022/10/09 04:38:04;;;;;;;15.68;4.47;;;;;;;15.15;100.00;98599.28;6255846;22;20070;-96
2022/10/09 04:40:37;;;;;;;12.93;4.28;;;;;;;15.92;100.00;98607.44;6255121;22;20004;-95
2022/10/09 04:43:07;;;;;;;14.55;4.57;;;;;;;13.75;100.00;98610.03;6256023;22;20004;-96
2022/10/09 04:45:42;;;;;;;16.50;5.20;;;;;;;14.95;100.00;98629.63;6252406;22;20015;-95
2022/10/09 04:48:10;;;;;;;16.95;4.90;;;;;;;14.74;100.00;98590.84;6255105;22;20011;-96
2022/10/09 04:50:51;;;;;;;16.20;5.53;;;;;;;15.55;100.00;98599.84;6254081;22;20011;-96
2022/10/09 04:53:16;;;;;;;14.15;4.90;;;;;;;15.14;100.00;98572.19;6256960;22;20065;-96
2022/10/09 04:59:17;;;;;;;13.80;4.60;;;;;;;15.89;100.00;98554.06;6281729;22;20113;-96
2022/10/09 05:01:50;;;;;;;12.77;3.72;;;;;;;15.75;100.00;98554.47;6253391;22;20047;-95
2022/10/09 05:04:18;;;;;;;12.55;3.80;;;;;;;15.68;100.00;98536.31;6251785;22;20015;-96
2022/10/09 05:06:46;;;;;;;13.57;4.20;;;;;;;15.65;100.00;98543.41;6257113;22;20004;-96
2022/10/09 05:09:21;;;;;;;15.30;4.15;;;;;;;15.60;100.00;98548.84;6257744;22;20102;-96
2022/10/09 05:11:46;;;;;;;14.75;3.90;;;;;;;15.81;100.00;98547.28;6254748;22;20022;-95
2022/10/09 05:14:41;;;;;;;13.60;3.65;;;;;;;15.44;100.00;98545.00;6253861;22;20000;-95
2022/10/09 05:17:07;;;;;;;20.02;4.75;;;;;;;14.79;100.00;98541.72;6240471;22;20015;-96
2022/10/09 05:19:33;;;;;;;11.63;4.03;;;;;;;15.96;100.00;98537.16;6256174;22;20080;-96
2022/10/09 05:22:10;;;;;;;14.82;4.93;;;;;;;15.29;100.00;98539.28;6256175;22;20065;-95
2022/10/09 05:24:39;;;;;;;13.10;4.28;;;;;;;13.75;100.00;98564.59;6255920;22;20018;-96
2022/10/09 05:27:04;;;;;;;15.65;4.88;;;;;;;13.56;100.00;98567.69;6253387;22;20011;-96
2022/10/09 05:29:30;;;;;;;13.00;5.45;;;;;;;13.73;100.00;98571.66;6252749;22;20253;-95
2022/10/09 05:31:56;;;;;;;15.30;4.93;;;;;;;14.17;100.00;98562.66;6253874;22;20010;-96
2022/10/09 05:34:43;;;;;;;15.48;4.95;;;;;;;13.69;100.00;98552.53;6251957;22;20020;-95
2022/10/09 05:37:10;;;;;;;17.42;6.20;;;;;;;14.04;100.00;98547.28;6277751;22;20381;-95
2022/10/09 05:39:42;;;;;;;20.25;6.03;;;;;;;13.36;100.00;98552.47;6254127;22;20787;-96
2022/10/09 05:42:19;;;;;;;19.33;5.60;;;;;;;13.66;100.00;98560.47;6252240;22;20004;-95
2022/10/09 05:44:44;;;;;;;18.13;5.70;;;;;;;13.32;100.00;98562.09;6253178;22;20014;-95
2022/10/09 05:47:16;;;;;;;20.40;5.63;;;;;;;13.04;100.00;98571.47;6250197;22;20003;-95
2022/10/09 05:49:48;;;;;;;22.30;5.80;;;;;;;14.28;100.00;98551.88;6248215;22;20011;-96
2022/10/09 05:52:14;;;;;;;24.15;7.40;;;;;;;13.38;100.00;98544.56;6251427;22;20011;-96
2022/10/09 05:54:46;;;;;;;12.73;5.68;;;;;;;13.97;100.00;98547.44;6247688;22;20047;-96
2022/10/09 05:57:21;;;;;;;16.45;6.03;;;;;;;13.12;100.00;98556.47;6247302;22;20011;-93
2022/10/09 06:00:16;;;;;;;18.48;6.20;;;;;;;13.65;100.00;98537.78;6247682;22;20004;-95
2022/10/09 06:02:41;;;;;;;17.52;5.90;;;;;;;13.47;100.00;98542.59;6231238;22;20118;-95
2022/10/09 06:05:13;;;;;;;15.00;6.10;;;;;;;14.15;100.00;98560.97;6249259;22;20149;-94
2022/10/09 06:07:44;;;;;;;20.58;5.93;;;;;;;13.86;100.00;98544.22;6250470;22;20012;-95
2022/10/09 06:10:18;;;;;;;17.00;6.10;;;;;;;13.84;100.00;98532.94;6246915;22;20433;-96
2022/10/09 06:12:46;;;;;;;18.05;6.45;;;;;;;14.63;100.00;98526.41;6250758;22;20094;-95
2022/10/09 06:15:17;;;;;;;19.67;5.80;;;;;;;14.60;100.00;98518.63;6248798;22;20023;-96
2022/10/09 06:21:45;;;;;;;17.25;5.38;;;;;;;14.51;100.00;98508.38;6276472;22;20157;-95
2022/10/09 06:27:44;;;;;;;13.43;4.35;;;;;;;15.06;100.00;98499.75;6277826;22;20444;-95
2022/10/09 06:30:19;;;;;;;19.83;4.57;;;;;;;14.73;100.00;98498.13;6250909;22;20004;-96
2022/10/09 06:32:50;;;;;;;12.00;4.30;;;;;;;13.83;100.00;98505.00;6252656;22;20091;-95
2022/10/09 06:35:41;;;;;;;14.40;4.07;;;;;;;13.83;100.00;98512.84;6244063;23;20008;-95
2022/10/09 06:38:45;;;;;;;13.35;4.05;;;;;;;13.39;100.00;98520.06;6218851;23;20461;-95
2022/10/09 06:41:27;;;;;;;14.10;4.10;;;;;;;13.98;100.00;98504.56;6217483;23;20435;-94
2022/10/09 06:44:23;;;;;;;;;;;;;;;;;;;;;
2022/10/09 06:46:51;;;;;;;13.43;3.47;;;;;;;14.38;100.00;98512.25;6245185;23;20382;-95
2022/10/09 06:49:26;;;;;;;10.35;3.35;;;;;;;14.33;100.00;98499.25;6221023;23;20477;-95
2022/10/09 06:51:57;;;;;;;16.30;3.53;;;;;;;14.16;100.00;98497.97;6217193;23;20078;-94
2022/10/09 06:54:28;;;;;;;11.27;3.28;;;;;;;14.16;100.00;98500.59;6216565;23;20096;-94
2022/10/09 06:57:07;;;;;;;13.23;2.92;;;;;;;18.23;100.00;98491.41;6245370;23;20008;-96
2022/10/09 06:59:32;;;;;;;14.40;3.28;;;;;;;13.89;100.00;98485.63;6225195;23;20000;-95
2022/10/09 07:01:58;;;;;;;11.82;3.10;;;;;;;14.63;100.00;98479.19;6225550;23;20051;-96
2022/10/09 07:05:23;;;;;;;11.45;2.75;;;;;;;17.18;100.00;98456.28;6216851;23;20088;-96
2022/10/09 07:07:51;;;;;;;;;;;;;;;17.19;100.00;98450.09;6222632;23;20015;-96
2022/10/09 07:10:35;;;;;;;8.98;2.47;;;;;;;14.98;100.00;98477.22;6221586;23;19903;-96
2022/10/09 07:13:11;;;;;;;10.18;3.00;;;;;;;14.40;100.00;98464.06;6219473;23;20434;-96
2022/10/09 07:16:36;;;;;;;8.23;2.53;;;;;;;15.10;100.00;98483.00;6216287;23;20038;-96
2022/10/09 07:19:09;;;;;;;13.40;2.50;;;;;;;14.75;100.00;98456.09;6221755;23;20016;-96
2022/10/09 07:22:17;;;;;;;10.80;2.88;;;;;;;14.60;100.00;98471.38;6225097;23;20023;-95
2022/10/09 07:25:06;;;;;;;12.63;3.03;;;;;;;14.61;100.00;98467.84;6220362;23;20019;-96
2022/10/09 07:34:32;;;;;;;10.82;2.97;;;;;;;15.63;100.00;98451.47;6225377;23;20001;-96
2022/10/09 07:37:35;;;;;;;10.90;2.92;;;;;;;14.56;100.00;98456.63;6218831;23;20015;-95
2022/10/09 07:40:19;;;;;;;10.70;3.15;;;;;;;14.97;100.00;98454.50;6192695;23;20036;-96
2022/10/09 07:43:13;;;;;;;12.70;3.38;;;;;;;15.34;100.00;98455.94;6213778;23;20278;-96
2022/10/09 07:49:25;;;;;;;11.77;2.80;;;;;;;15.59;100.00;98452.47;6202339;23;20019;-96
2022/10/09 08:02:59;;;;;;;9.33;2.23;;;;;;;18.90;100.00;98402.06;6238072;23;20633;-90
2022/10/09 08:05:25;;;;;;;10.63;2.20;;;;;;;18.76;100.00;98400.06;6234424;22;20019;-89
2022/10/09 08:07:50;;;;;;;9.50;2.33;;;;;;;18.25;100.00;98410.38;6233532;23;20008;-88
2022/10/09 08:10:16;;;;;;;12.40;2.00;;;;;;;18.65;100.00;98405.00;6233025;23;20390;-88
2022/10/09 08:12:41;;;;;;;8.38;2.55;;;;;;;18.73;100.00;98421.34;6234599;23;20039;-90
2022/10/09 08:15:07;;;;;;;12.23;2.15;;;;;;;17.87;100.00;98416.44;6232936;23;20028;-89
2022/10/09 08:17:33;;;;;;;13.27;2.63;;;;;;;18.40;100.00;98414.09;6235972;22;20163;-88
2022/10/09 08:19:58;;;;;;;10.77;1.92;;;;;;;18.50;100.00;98409.25;6259358;22;20390;-88
2022/10/09 08:22:24;;;;;;;11.82;2.33;;;;;;;19.08;100.00;98402.94;6234881;23;20011;-88
2022/10/09 08:24:49;;;;;;;11.75;2.75;;;;;;;18.37;100.00;98409.81;6235574;23;20019;-88
2022/10/09 08:27:18;;;;;;;10.98;2.00;;;;;;;18.11;100.00;98405.72;6234328;23;20094;-88
2022/10/09 08:29:43;;;;;;;8.63;2.00;;;;;;;18.72;100.00;98395.88;6237455;22;20026;-88
2022/10/09 08:32:09;;;;;;;12.45;2.20;;;;;;;18.87;100.00;98397.81;6235651;23;20079;-88
2022/10/09 08:34:34;;;;;;;8.82;1.83;;;;;;;17.77;100.00;98395.78;6234957;23;20499;-88
2022/10/09 08:37:00;;;;;;;11.55;2.33;;;;;;;17.87;100.00;98394.44;6236952;23;20007;-88
2022/10/09 08:39:29;;;;;;;8.52;1.80;;;;;;;17.89;100.00;98389.97;6259082;22;20011;-88
2022/10/09 08:42:02;;;;;;;9.32;1.98;;;;;;;17.89;100.00;98382.06;6231369;23;20003;-88
2022/10/09 08:44:41;;;;;;;12.25;2.08;;;;;;;19.43;100.00;98374.75;6234907;22;20008;-88
2022/10/09 08:47:24;;;;;;;10.57;2.10;;;;;;;19.37;100.00;98382.13;6238311;22;20016;-88
2022/10/09 08:49:56;;;;;;;9.43;2.05;;;;;;;18.71;100.00;98384.44;6240014;22;19999;-88
2022/10/09 08:52:56;;;;;;;7.38;2.15;;;;;;;18.39;100.00;98380.69;6236447;23;20008;-89
2022/10/09 08:55:38;;;;;;;;;;;;;;;;;;;;;
2022/10/09 08:58:17;;;;;;;10.43;2.53;;;;;;;16.52;100.00;98378.97;6231619;22;20091;-90
2022/10/09 09:01:04;;;;;;;9.35;2.15;;;;;;;17.32;100.00;98372.22;6239273;22;20436;-89
2022/10/09 09:04:14;;;;;;;9.80;2.10;;;;;;;17.84;100.00;98386.69;6241773;22;20081;-90
2022/10/09 09:06:45;;;;;;;8.82;2.20;;;;;;;18.00;100.00;98368.44;6242177;22;20014;-89
2022/10/09 09:09:43;;;;;;;10.02;2.00;;;;;;;18.17;100.00;98380.84;6269317;22;20445;-90
2022/10/09 09:12:41;;;;;;;8.30;1.85;;;;;;;17.67;100.00;98375.09;6267589;22;20018;-90
2022/10/09 09:15:15;;;;;;;8.55;1.75;;;;;;;17.79;100.00;98378.13;6240082;22;20004;-89
2022/10/09 09:17:53;;;;;;;13.93;2.83;;;;;;;17.71;100.00;98375.81;6265914;22;20083;-88
2022/10/09 09:20:30;;;;;;;9.75;2.15;;;;;;;17.93;100.00;98357.28;6269536;22;20008;-89
2022/10/09 09:23:00;;;;;;;8.48;2.17;;;;;;;19.76;100.00;98339.53;6241291;22;20087;-88
2022/10/09 09:25:34;;;;;;;8.45;2.10;;;;;;;16.94;100.00;98366.78;6264785;22;20004;-90
2022/10/09 09:28:21;;;;;;;12.15;2.40;;;;;;;18.07;100.00;98341.66;6241106;22;20022;-90
2022/10/09 09:30:54;;;;;;;7.60;1.85;;;;;;;17.46;100.00;98341.78;6239447;22;20081;-90
2022/10/09 09:33:32;;;;;;;;;;;;;;;18.39;100.00;98359.56;6269011;22;20011;-89
2022/10/09 09:36:45;;;;;;;9.23;1.90;;;;;;;17.86;100.00;98337.38;6267259;22;19911;-90
2022/10/09 09:39:12;;;;;;;9.73;1.88;;;;;;;17.89;100.00;98342.50;6238032;22;20062;-89
2022/10/09 09:41:43;;;;;;;8.63;1.63;;;;;;;18.69;100.00;98333.47;6236096;22;20102;-89
2022/10/09 09:44:14;;;;;;;10.95;2.10;;;;;;;18.12;100.00;98336.19;6237163;22;20402;-88
2022/10/09 09:46:40;;;;;;;7.18;1.90;;;;;;;18.45;100.00;98339.94;6238211;22;20062;-89
2022/10/09 09:49:20;;;;;;;9.25;2.20;;;;;;;18.86;100.00;98326.47;6239924;22;20003;-89
2022/10/09 09:51:48;;;;;;;9.80;1.88;;;;;;;18.84;100.00;98336.28;6237720;22;20428;-88
2022/10/09 09:54:23;;;;;;;11.27;2.47;;;;;;;19.08;100.00;98318.38;6237279;22;20022;-89
2022/10/09 09:56:51;;;;;;;13.27;2.22;;;;;;;19.30;100.00;98326.06;6238343;22;20540;-89
2022/10/09 09:59:37;;;;;;;8.32;2.15;;;;;;;18.56;100.00;98324.44;6268071;22;20004;-89
2022/10/09 10:02:23;;;;;;;10.18;2.05;;;;;;;19.13;100.00;98326.06;6268129;22;20089;-89
2022/10/09 10:04:52;;;;;;;9.98;2.30;;;;;;;18.27;100.00;98329.31;6241560;22;20043;-89
2022/10/09 10:07:34;;;;;;;9.18;1.90;;;;;;;18.83;100.00;98316.06;6241291;22;20033;-89
2022/10/09 10:10:13;;;;;;;7.70;1.88;;;;;;;18.58;100.00;98306.75;6241145;22;20124;-89
2022/10/09 10:12:45;;;;;;;8.95;2.00;;;;;;;20.44;100.00;98293.44;6239929;22;20016;-90
2022/10/09 10:15:32;;;;;;;9.25;2.20;;;;;;;18.83;100.00;98302.88;6240523;22;20106;-89
2022/10/09 10:18:05;;;;;;;9.48;2.40;;;;;;;20.08;100.00;98302.56;6265774;22;20022;-89
2022/10/09 10:20:40;;;;;;;8.02;1.90;;;;;;;19.05;100.00;98295.63;6242044;22;20008;-90
2022/10/09 10:23:39;;;;;;;9.05;2.13;;;;;;;19.39;100.00;98285.06;6240786;22;20000;-89
2022/10/09 10:26:27;;;;;;;14.98;2.17;;;;;;;19.42;100.00;98291.03;6238151;22;20015;-89
2022/10/09 10:29:00;;;;;;;8.27;1.75;;;;;;;20.61;100.00;98273.09;6239677;22;20003;-89
2022/10/09 10:31:45;;;;;;;8.43;2.05;;;;;;;19.94;100.00;98274.19;6267400;22;20078;-89
2022/10/09 10:34:25;;;;;;;8.55;2.10;;;;;;;20.77;100.00;98273.94;6240865;22;20011;-89
2022/10/09 10:36:59;;;;;;;10.38;2.40;;;;;;;20.19;100.00;98272.81;6268443;22;20004;-90
2022/10/09 10:39:39;;;;;;;9.38;2.05;;;;;;;20.28;100.00;98255.56;6266812;22;20264;-89
2022/10/09 10:42:17;;;;;;;8.93;1.80;;;;;;;21.05;100.00;98255.56;6236803;22;20424;-90
2022/10/09 10:45:02;;;;;;;7.22;1.75;;;;;;;20.23;100.00;98245.22;6239285;22;20090;-90
2022/10/09 10:47:31;;;;;;;7.13;1.60;;;;;;;21.08;100.00;98250.06;6239464;22;20014;-90
2022/10/09 10:50:00;;;;;;;7.80;1.67;;;;;;;21.35;100.00;98242.25;6237458;22;20081;-90
2022/10/09 10:52:41;;;;;;;9.50;1.88;;;;;;;23.44;100.00;98237.50;6239595;22;20008;-90
2022/10/09 10:55:09;;;;;;;7.85;1.85;;;;;;;21.94;100.00;98231.47;6239138;22;20062;-90
2022/10/09 10:58:11;;;;;;;7.18;1.52;;;;;;;22.07;100.00;98226.22;6235095;22;20018;-90
2022/10/09 11:00:42;;;;;;;7.88;1.77;;;;;;;22.37;100.00;98219.06;6230644;22;20076;-90
2022/10/09 11:03:39;;;;;;;12.65;1.85;;;;;;;21.39;100.00;98213.72;6239338;22;20023;-90
2022/10/09 11:06:19;;;;;;;8.27;1.63;;;;;;;21.49;100.00;98222.81;6239396;22;20012;-90
2022/10/09 11:09:12;;;;;;;8.27;1.45;;;;;;;20.86;100.00;98203.63;6234311;22;20019;-90
2022/10/09 11:11:57;;;;;;;5.93;1.47;;;;;;;21.08;100.00;98203.19;6266893;22;20103;-89
2022/10/09 11:14:50;;;;;;;7.82;1.40;;;;;;;20.76;100.00;98192.72;6265511;22;20079;-90
2022/10/09 11:17:25;;;;;;;9.77;1.60;;;;;;;21.40;100.00;98202.16;6239020;22;20409;-90
2022/10/09 11:20:33;;;;;;;8.00;1.70;;;;;;;20.57;100.00;98197.38;6236750;22;20516;-89
2022/10/09 11:23:17;;;;;;;9.07;1.67;;;;;;;21.05;100.00;98197.22;6238826;22;20347;-90
2022/10/09 11:26:02;;;;;;;6.57;1.40;;;;;;;21.02;100.00;98197.44;6240703;22;20022;-90
2022/10/09 11:28:41;;;;;;;11.27;2.03;;;;;;;21.03;100.00;98189.38;6241511;22;20078;-90
2022/10/09 11:31:18;;;;;;;7.70;1.42;;;;;;;21.38;100.00;98185.47;6241570;22;20026;-91
2022/10/09 11:33:55;;;;;;;8.10;1.60;;;;;;;21.13;100.00;98179.06;6268454;22;20007;-90
2022/10/09 11:36:32;;;;;;;11.65;1.52;;;;;;;21.39;100.00;98171.25;6266924;22;20012;-90
2022/10/09 11:39:02;;;;;;;9.07;1.70;;;;;;;20.95;100.00;98173.09;6240879;22;20090;-90
2022/10/09 11:41:29;;;;;;;8.35;1.88;;;;;;;21.45;100.00;98162.94;6241772;22;20042;-91
2022/10/09 11:44:19;;;;;;;8.50;1.75;;;;;;;21.73;100.00;98158.56;6268705;22;20003;-90
2022/10/09 11:47:08;;;;;;;8.98;2.03;;;;;;;20.48;100.00;98140.50;6270300;22;20014;-90
2022/10/09 11:49:58;;;;;;;13.88;1.83;;;;;;;21.14;100.00;98151.56;6241890;22;20085;-90
2022/10/09 11:52:48;;;;;;;8.63;1.83;;;;;;;21.23;100.00;98156.31;6241422;22;20018;-91
2022/10/09 11:55:18;;;;;;;9.02;1.80;;;;;;;21.95;100.00;98145.59;6267970;22;20066;-91
2022/10/09 11:57:44;;;;;;;11.95;1.60;;;;;;;22.10;100.00;98142.84;6240765;22;20022;-91
2022/10/09 12:00:14;;;;;;;9.77;1.80;;;;;;;21.93;100.00;98151.94;6269207;22;20063;-90
2022/10/09 12:02:45;;;;;;;9.93;1.75;;;;;;;22.07;100.00;98138.59;6237433;22;20102;-90
2022/10/09 12:05:31;;;;;;;9.52;1.67;;;;;;;21.54;100.00;98121.72;6268395;22;20031;-90
2022/10/09 12:08:25;;;;;;;7.15;1.65;;;;;;;21.82;100.00;98132.28;6267050;22;20006;-90
2022/10/09 12:10:57;;;;;;;6.82;1.25;;;;;;;21.57;100.00;98116.22;6268138;22;20022;-91
2022/10/09 12:13:31;;;;;;;11.55;1.70;;;;;;;21.09;100.00;98122.69;6269047;22;20003;-90
2022/10/09 12:15:58;;;;;;;8.55;1.50;;;;;;;21.06;100.00;98138.81;6242294;22;20015;-89
2022/10/09 12:18:32;;;;;;;8.50;1.58;;;;;;;21.37;100.00;98114.81;6240979;22;20007;-90
2022/10/09 12:21:02;;;;;;;6.95;1.35;;;;;;;21.90;100.00;98112.31;6240845;22;20007;-89
2022/10/09 12:23:32;;;;;;;9.13;1.60;;;;;;;21.49;100.00;98109.56;6240715;22;20087;-89
2022/10/09 12:26:02;;;;;;;8.02;1.67;;;;;;;21.39;100.00;98104.94;6267846;22;19996;-89
2022/10/09 12:28:45;;;;;;;8.77;1.60;;;;;;;22.28;100.00;98111.56;6240104;22;20007;-90
2022/10/09 12:31:23;;;;;;;8.27;1.83;;;;;;;22.23;100.00;98108.38;6239644;22;20031;-89
2022/10/09 12:33:54;;;;;;;5.95;1.52;;;;;;;22.35;100.00;98098.75;6242105;22;20015;-89
2022/10/09 12:36:27;;;;;;;6.82;1.45;;;;;;;21.55;100.00;98094.25;6269316;22;20004;-89
2022/10/09 12:38:55;;;;;;;11.15;1.90;;;;;;;21.81;100.00;98087.25;6268938;22;20391;-89
2022/10/09 12:41:34;;;;;;;10.20;1.48;;;;;;;22.68;100.00;98077.81;6267856;22;20077;-91
2022/10/09 12:44:02;;;;;;;9.15;1.50;;;;;;;22.55;100.00;98079.66;6268567;22;20069;-90
2022/10/09 12:46:33;;;;;;;10.30;1.88;;;;;;;21.93;100.00;98072.28;6240776;22;19999;-90
2022/10/09 12:49:00;;;;;;;7.68;1.65;;;;;;;21.87;100.00;98070.91;6241892;22;20039;-89
2022/10/09 12:51:28;;;;;;;7.70;1.58;;;;;;;22.28;100.00;98072.59;6267040;22;20087;-90